createdAt,value
2023-03-11T00:08:20.527Z,5.70
2023-03-11T00:23:25.760Z,4.90
2023-03-11T00:38:42.868Z,5.20
2023-03-11T00:53:45.877Z,4.70
2023-03-11T01:08:48.434Z,4.80
2023-03-11T01:23:51.137Z,5.00
2023-03-11T01:38:54.125Z,5.30
2023-03-11T02:09:03.989Z,4.90
2023-03-11T02:24:44.870Z,5.20
2023-03-11T02:39:54.447Z,5.40
2023-03-11T02:54:57.987Z,5.50
2023-03-11T03:10:01.290Z,5.30
2023-03-11T03:25:05.042Z,3.80
2023-03-11T03:40:09.312Z,7.90
2023-03-11T03:55:12.016Z,8.80
2023-03-11T04:10:14.667Z,5.70
2023-03-11T04:25:17.547Z,5.00
2023-03-11T04:40:21.902Z,3.60
2023-03-11T04:55:25.190Z,2.90
2023-03-11T05:10:29.194Z,3.20
2023-03-11T05:25:33.020Z,2.20
2023-03-11T05:40:36.159Z,2.70
2023-03-11T05:55:39.069Z,2.00
2023-03-11T06:10:42.854Z,4.00
2023-03-11T06:25:58.970Z,4.40
2023-03-11T06:41:04.926Z,3.40
2023-03-11T06:56:14.540Z,3.20
2023-03-11T07:11:27.443Z,3.70
2023-03-11T07:26:33.899Z,3.30
2023-03-11T07:41:36.605Z,4.10
2023-03-11T07:56:40.733Z,4.00
2023-03-11T08:11:43.687Z,2.20
2023-03-11T08:26:46.574Z,2.80
2023-03-11T08:42:04.153Z,3.90
2023-03-11T08:57:07.605Z,3.20
2023-03-11T09:12:13.776Z,3.60
2023-03-11T09:27:17.066Z,2.50
2023-03-11T09:42:42.265Z,1.90
2023-03-11T09:57:45.636Z,2.50
2023-03-11T10:12:54.839Z,4.10
2023-03-11T10:28:08.049Z,2.20
2023-03-11T10:43:49.338Z,2.50
2023-03-11T11:10:48.712Z,3.20
2023-03-11T11:26:21.332Z,2.30
2023-03-11T11:41:27.975Z,2.80
2023-03-11T11:56:30.744Z,2.90
2023-03-11T12:11:47.542Z,2.10
2023-03-11T12:26:54.171Z,1.80
2023-03-11T12:42:17.804Z,1.90
2023-03-11T12:57:20.528Z,2.40
2023-03-11T13:12:50.619Z,1.80
2023-03-11T13:28:22.799Z,1.70
2023-03-11T13:43:26.227Z,1.90
2023-03-11T13:58:29.586Z,2.10
2023-03-11T14:13:41.118Z,1.40
2023-03-11T14:29:06.644Z,2.20
2023-03-11T14:44:11.346Z,1.80
2023-03-11T14:59:26.310Z,1.70
2023-03-11T15:14:48.097Z,1.80
2023-03-11T15:30:17.869Z,2.00
2023-03-11T15:45:36.567Z,1.50
2023-03-11T16:00:45.213Z,2.00
2023-03-11T16:16:04.595Z,3.40
2023-03-11T16:31:09.127Z,3.40
2023-03-11T16:46:12.100Z,3.80
2023-03-11T17:01:29.601Z,4.80
2023-03-11T17:16:35.515Z,5.70
2023-03-11T17:31:38.510Z,4.90
2023-03-11T17:46:41.482Z,5.20
2023-03-11T18:01:58.595Z,8.20
2023-03-11T18:17:01.328Z,5.20
2023-03-11T18:32:03.909Z,5.30
2023-03-11T18:47:06.813Z,5.30
2023-03-11T19:02:10.878Z,3.60
2023-03-11T19:17:16.223Z,5.00
2023-03-11T19:32:19.074Z,5.00
2023-03-11T19:47:23.850Z,5.30
2023-03-11T20:02:27.303Z,5.10
2023-03-11T20:17:31.739Z,4.70
2023-03-11T20:32:35.262Z,4.30
2023-03-11T20:47:40.410Z,4.10
2023-03-11T21:18:09.442Z,3.70
2023-03-11T21:33:20.490Z,4.60
2023-03-11T21:48:26.978Z,4.00
2023-03-11T22:03:35.295Z,4.10
2023-03-11T22:18:40.760Z,4.60
2023-03-11T22:33:47.052Z,3.50
2023-03-11T22:48:57.141Z,3.90
2023-03-11T23:04:02.630Z,3.60
2023-03-11T23:19:07.453Z,3.30
2023-03-11T23:34:11.937Z,4.50
2023-03-11T23:49:15.883Z,3.80
